createdAt,value
2019-05-14T01:11:22.154Z,8.48
2019-05-14T01:13:52.795Z,8.25
2019-05-14T01:16:24.048Z,8.68
2019-05-14T01:18:55.263Z,8.43
2019-05-14T01:21:26.506Z,8.73
2019-05-14T01:24:02.075Z,8.35
2019-05-14T01:26:33.172Z,8.38
2019-05-14T01:29:04.798Z,8.95
2019-05-14T01:31:35.840Z,9.93
2019-05-14T01:34:06.959Z,9.65
2019-05-14T01:36:38.408Z,9.40
2019-05-14T01:39:11.869Z,9.87
2019-05-14T01:41:42.244Z,9.50
2019-05-14T01:44:13.575Z,9.15
2019-05-14T01:46:44.591Z,8.30
2019-05-14T01:49:15.518Z,8.55
2019-05-14T01:51:46.432Z,7.70
2019-05-14T01:54:17.592Z,7.62
2019-05-14T01:56:51.321Z,7.30
2019-05-14T01:59:21.487Z,6.90
2019-05-14T02:01:52.501Z,6.78
2019-05-14T02:04:23.618Z,6.28
2019-05-14T02:06:54.690Z,6.08
2019-05-14T02:09:25.822Z,6.20
2019-05-14T02:11:56.831Z,6.17
2019-05-14T02:14:27.926Z,6.12
2019-05-14T02:17:01.645Z,6.50
2019-05-14T02:19:31.850Z,6.12
2019-05-14T02:22:03.124Z,5.50
2019-05-14T02:24:34.072Z,5.50
2019-05-14T02:27:04.917Z,5.40
2019-05-14T02:29:55.686Z,7.22
2019-05-14T02:32:29.597Z,5.85
2019-05-14T02:37:30.253Z,5.30
2019-05-14T02:40:01.524Z,5.65
2019-05-14T02:42:32.487Z,5.28
2019-05-14T02:45:04.790Z,5.53
2019-05-14T02:50:09.689Z,5.90
2019-05-14T02:52:40.222Z,5.30
2019-05-14T02:55:11.309Z,5.30
2019-05-14T02:57:42.282Z,5.00
2019-05-14T03:00:13.316Z,5.03
2019-05-14T03:02:44.628Z,5.00
2019-05-14T03:07:54.115Z,5.05
2019-05-14T03:10:25.115Z,4.40
2019-05-14T03:12:58.842Z,5.17
2019-05-14T03:15:29.141Z,4.87
2019-05-14T03:18:00.736Z,4.80
2019-05-14T03:20:31.768Z,4.83
2019-05-14T03:23:08.666Z,4.90
2019-05-14T03:25:36.036Z,5.10
2019-05-14T03:28:09.249Z,4.85
2019-05-14T03:30:42.333Z,5.62
2019-05-14T03:35:50.029Z,4.87
2019-05-14T03:38:15.669Z,4.75
2019-05-14T03:40:49.406Z,5.30
2019-05-14T03:43:19.911Z,4.65
2019-05-14T03:45:51.099Z,4.78
2019-05-14T03:48:22.219Z,5.42
2019-05-14T03:50:53.522Z,5.78
2019-05-14T03:53:24.559Z,4.75
2019-05-14T03:55:55.704Z,4.60
2019-05-14T03:58:29.635Z,4.92
2019-05-14T04:03:32.903Z,4.53
2019-05-14T04:06:04.274Z,4.50
2019-05-14T04:08:35.361Z,5.20
2019-05-14T04:11:09.342Z,5.00
2019-05-14T04:13:40.607Z,4.62
2019-05-14T04:16:10.911Z,4.67
2019-05-14T04:18:41.897Z,4.95
2019-05-14T04:21:14.768Z,5.12
2019-05-14T04:23:50.854Z,5.15
2019-05-14T04:26:22.259Z,4.95
2019-05-14T04:28:53.482Z,5.15
2019-05-14T04:31:24.463Z,5.60
2019-05-14T04:33:59.252Z,5.08
2019-05-14T04:36:30.572Z,5.33
2019-05-14T04:39:02.028Z,5.12
2019-05-14T04:41:33.099Z,5.20
2019-05-14T04:44:04.093Z,5.62
2019-05-14T04:46:35.086Z,5.08
2019-05-14T04:49:09.331Z,5.37
2019-05-14T04:54:11.173Z,5.55
2019-05-14T04:56:42.199Z,5.40
2019-05-14T04:59:13.074Z,4.80
2019-05-14T05:01:44.074Z,4.70
2019-05-14T05:04:15.122Z,4.90
2019-05-14T05:06:45.903Z,4.70
2019-05-14T05:09:19.760Z,5.03
2019-05-14T05:14:23.620Z,4.53
2019-05-14T05:16:52.237Z,5.33
2019-05-14T05:19:23.122Z,5.22
2019-05-14T05:21:54.234Z,4.95
2019-05-14T05:24:28.700Z,5.40
2019-05-14T05:26:59.900Z,5.40
2019-05-14T05:29:31.645Z,4.83
2019-05-14T05:32:03.194Z,4.85
2019-05-14T05:34:34.797Z,5.00
2019-05-14T05:37:08.432Z,4.60
2019-05-14T05:39:39.628Z,4.60
2019-05-14T05:42:11.310Z,4.67
2019-05-14T05:44:42.890Z,5.10
2019-05-14T05:47:14.387Z,4.60
2019-05-14T05:49:45.534Z,4.65
2019-05-14T05:52:18.911Z,5.62
2019-05-14T05:54:49.226Z,4.95
2019-05-14T05:57:20.159Z,5.20
2019-05-14T05:59:51.399Z,5.25
2019-05-14T06:02:22.586Z,4.97
2019-05-14T06:04:53.839Z,5.50
2019-05-14T06:07:24.778Z,5.23
2019-05-14T06:09:58.868Z,5.20
2019-05-14T06:12:29.549Z,5.42
2019-05-14T06:15:00.540Z,5.67
2019-05-14T06:17:31.544Z,5.67
2019-05-14T06:20:02.490Z,5.47
2019-05-14T06:22:33.391Z,5.58
2019-05-14T06:25:04.383Z,5.42
2019-05-14T06:27:35.245Z,5.37
2019-05-14T06:30:09.139Z,5.55
2019-05-14T06:32:40.180Z,5.28
2019-05-14T06:35:10.999Z,5.15
2019-05-14T06:37:41.975Z,5.00
2019-05-14T06:40:12.877Z,6.10
2019-05-14T06:42:43.862Z,5.53
2019-05-14T06:45:14.823Z,5.72
2019-05-14T06:47:45.811Z,5.65
2019-05-14T06:50:18.856Z,5.08
2019-05-14T06:52:49.304Z,5.22
2019-05-14T06:55:20.287Z,5.35
2019-05-14T06:57:51.281Z,5.67
2019-05-14T07:00:22.266Z,5.08
2019-05-14T07:02:53.317Z,5.08
2019-05-14T07:05:24.467Z,5.15
2019-05-14T07:10:44.275Z,4.70
2019-05-14T07:13:15.283Z,4.40
2019-05-14T07:15:48.699Z,5.00
2019-05-14T07:20:50.124Z,4.90
2019-05-14T07:23:21.113Z,4.67
2019-05-14T07:25:52.215Z,4.22
2019-05-14T07:28:23.134Z,5.20
2019-05-14T07:30:54.053Z,4.87
2019-05-14T07:33:25.442Z,4.12
2019-05-14T07:35:59.134Z,5.00
2019-05-14T07:41:00.069Z,4.58
2019-05-14T07:43:31.332Z,4.47
2019-05-14T07:46:02.202Z,4.83
2019-05-14T07:48:33.090Z,4.33
2019-05-14T07:51:04.226Z,5.05
2019-05-14T07:53:39.034Z,4.85
2019-05-14T07:58:38.635Z,4.97
2019-05-14T08:01:09.867Z,4.05
2019-05-14T08:03:40.804Z,4.67
2019-05-14T08:06:12.015Z,4.10
2019-05-14T08:08:43.123Z,4.37
2019-05-14T08:11:13.943Z,4.67
2019-05-14T08:13:44.944Z,4.50
2019-05-14T08:16:18.488Z,4.47
2019-05-14T08:18:48.719Z,4.25
2019-05-14T08:21:19.971Z,4.03
2019-05-14T08:23:51.291Z,4.45
2019-05-14T08:26:22.304Z,4.70
2019-05-14T08:28:53.313Z,5.03
2019-05-14T08:31:25.147Z,4.90
2019-05-14T08:33:58.977Z,5.33
2019-05-14T08:36:29.751Z,4.60
2019-05-14T08:39:01.296Z,4.12
2019-05-14T08:41:33.451Z,4.95
2019-05-14T08:46:34.605Z,4.60
2019-05-14T08:49:05.683Z,4.28
2019-05-14T08:51:38.836Z,4.25
2019-05-14T08:54:10.072Z,4.47
2019-05-14T08:59:11.279Z,4.58
2019-05-14T09:01:57.172Z,4.00
2019-05-14T09:06:44.357Z,4.40
2019-05-14T09:09:15.468Z,4.15
2019-05-14T09:11:50.147Z,4.28
2019-05-14T09:14:18.880Z,5.12
2019-05-14T09:16:50.985Z,4.25
2019-05-14T09:19:21.967Z,4.20
2019-05-14T09:21:52.898Z,4.05
2019-05-14T09:24:24.132Z,4.37
2019-05-14T09:26:55.127Z,5.50
2019-05-14T09:30:09.331Z,5.28
2019-05-14T09:32:00.946Z,4.80
2019-05-14T09:34:31.879Z,4.80
2019-05-14T09:37:03.351Z,5.08
2019-05-14T09:39:34.267Z,4.50
2019-05-14T09:42:05.274Z,4.62
2019-05-14T09:44:38.570Z,4.58
2019-05-14T09:47:08.824Z,4.00
2019-05-14T09:49:39.800Z,4.40
2019-05-14T09:52:10.692Z,4.50
2019-05-14T09:54:44.077Z,4.62
2019-05-14T09:57:15.518Z,4.30
2019-05-14T09:59:47.976Z,3.80
2019-05-14T10:02:18.749Z,4.00
2019-05-14T10:04:49.809Z,4.40
2019-05-14T10:07:20.940Z,4.72
2019-05-14T10:09:51.873Z,4.42
2019-05-14T10:12:22.705Z,4.45
2019-05-14T10:14:53.819Z,3.75
2019-05-14T10:17:24.831Z,3.90
2019-05-14T10:19:56.072Z,3.80
2019-05-14T10:22:28.544Z,3.85
2019-05-14T10:24:59.507Z,4.72
2019-05-14T10:27:30.410Z,4.05
2019-05-14T10:30:01.276Z,4.17
2019-05-14T10:32:32.105Z,3.80
2019-05-14T10:35:03.266Z,4.40
2019-05-14T10:37:34.035Z,4.55
2019-05-14T10:40:06.658Z,4.17
2019-05-14T10:42:40.865Z,4.08
2019-05-14T10:45:13.103Z,4.03
2019-05-14T10:47:44.211Z,3.90
2019-05-14T10:50:15.298Z,3.67
2019-05-14T10:52:48.813Z,3.80
2019-05-14T10:55:18.901Z,3.80
2019-05-14T10:57:54.196Z,3.30
2019-05-14T11:00:22.374Z,3.77
2019-05-14T11:02:53.423Z,3.83
2019-05-14T11:05:24.534Z,3.90
2019-05-14T11:07:55.365Z,3.83
2019-05-14T11:10:29.550Z,3.00
2019-05-14T11:12:59.403Z,3.22
2019-05-14T11:15:30.742Z,3.10
2019-05-14T11:18:03.409Z,3.17
2019-05-14T11:20:34.420Z,3.40
2019-05-14T11:23:05.900Z,2.83
2019-05-14T11:25:38.331Z,2.97
2019-05-14T11:28:12.598Z,3.15
2019-05-14T11:30:43.523Z,3.33
2019-05-14T11:33:14.745Z,2.75
2019-05-14T11:35:45.727Z,3.22
2019-05-14T11:38:28.533Z,2.90
2019-05-14T11:43:20.327Z,2.95
2019-05-14T11:45:51.286Z,2.75
2019-05-14T11:48:22.358Z,2.90
2019-05-14T11:50:53.285Z,2.65
2019-05-14T11:53:38.508Z,2.90
2019-05-14T11:56:09.786Z,2.80
2019-05-14T11:58:40.592Z,3.20
2019-05-14T12:01:29.592Z,3.25
2019-05-14T12:03:59.775Z,2.67
2019-05-14T12:09:23.653Z,3.05
2019-05-14T12:11:54.768Z,3.30
2019-05-14T12:14:25.857Z,3.37
2019-05-14T12:16:59.713Z,3.10
2019-05-14T12:19:28.981Z,3.17
2019-05-14T12:22:07.079Z,3.02
2019-05-14T12:24:32.012Z,3.65
2019-05-14T12:27:03.192Z,3.17
2019-05-14T12:29:34.048Z,3.45
2019-05-14T12:32:04.903Z,3.50
2019-05-14T12:34:38.494Z,3.98
2019-05-14T12:37:09.111Z,3.77
2019-05-14T12:42:11.248Z,4.35
2019-05-14T12:44:42.440Z,3.87
2019-05-14T12:47:13.777Z,3.58
2019-05-14T12:49:48.338Z,3.50
2019-05-14T12:52:25.504Z,3.08
2019-05-14T12:54:51.594Z,3.00
2019-05-14T12:57:22.697Z,2.58
2019-05-14T12:59:54.750Z,2.75
2019-05-14T13:02:25.658Z,3.30
2019-05-14T13:04:59.989Z,2.85
2019-05-14T13:07:29.462Z,2.80
2019-05-14T13:10:00.510Z,3.25
2019-05-14T13:12:31.399Z,2.70
2019-05-14T13:15:02.393Z,2.92
2019-05-14T13:17:33.750Z,2.90
2019-05-14T13:20:05.713Z,3.25
2019-05-14T13:22:44.923Z,3.67
2019-05-14T13:25:10.754Z,2.95
2019-05-14T13:27:41.726Z,3.12
2019-05-14T13:30:14.992Z,3.50
2019-05-14T13:32:48.548Z,3.10
2019-05-14T13:35:19.611Z,3.55
2019-05-14T13:37:51.419Z,3.40
2019-05-14T13:40:22.558Z,3.47
2019-05-14T13:42:53.668Z,3.70
2019-05-14T13:45:24.636Z,3.50
2019-05-14T13:47:55.767Z,3.50
2019-05-14T13:50:29.260Z,3.70
2019-05-14T13:55:31.580Z,4.58
2019-05-14T13:58:03.033Z,4.28
2019-05-14T14:00:34.060Z,4.70
2019-05-14T14:03:04.838Z,4.50
2019-05-14T14:05:38.911Z,4.67
2019-05-14T14:10:44.853Z,4.92
2019-05-14T14:15:42.984Z,4.40
2019-05-14T14:18:14.147Z,4.83
2019-05-14T14:20:45.060Z,5.15
2019-05-14T14:23:21.853Z,5.35
2019-05-14T14:25:53.713Z,5.10
2019-05-14T14:30:51.817Z,4.58
2019-05-14T14:33:22.742Z,5.15
2019-05-14T14:35:53.767Z,4.83
2019-05-14T14:38:25.402Z,4.70
2019-05-14T14:40:58.217Z,4.50
2019-05-14T14:43:29.510Z,4.17
2019-05-14T14:46:00.782Z,4.40
2019-05-14T14:48:31.606Z,4.08
2019-05-14T14:51:02.746Z,4.28
2019-05-14T14:53:51.486Z,4.65
2019-05-14T14:56:09.054Z,4.08
2019-05-14T15:01:09.382Z,3.98
2019-05-14T15:03:40.476Z,4.25
2019-05-14T15:06:11.662Z,3.83
2019-05-14T15:08:43.042Z,3.90
2019-05-14T15:11:13.951Z,4.20
2019-05-14T15:13:45.014Z,4.03
2019-05-14T15:16:16.046Z,4.80
2019-05-14T15:18:49.816Z,4.17
2019-05-14T15:21:19.616Z,3.98
2019-05-14T15:24:06.176Z,4.10
2019-05-14T15:26:22.789Z,4.25
2019-05-14T15:28:53.945Z,4.28
2019-05-14T15:31:24.899Z,4.60
2019-05-14T15:33:55.769Z,5.08
2019-05-14T15:36:26.659Z,5.25
2019-05-14T15:38:59.170Z,4.50
2019-05-14T15:41:30.390Z,4.67
2019-05-14T15:44:02.339Z,4.65
2019-05-14T15:46:33.289Z,4.85
2019-05-14T15:49:04.260Z,4.70
2019-05-14T15:51:35.366Z,4.20
2019-05-14T15:54:23.651Z,3.80
2019-05-14T15:56:39.506Z,4.28
2019-05-14T15:59:10.510Z,4.45
2019-05-14T16:01:41.453Z,4.35
2019-05-14T16:04:15.389Z,3.98
2019-05-14T16:06:48.727Z,4.58
2019-05-14T16:09:19.453Z,4.30
2019-05-14T16:11:50.691Z,4.28
2019-05-14T16:14:23.391Z,4.28
2019-05-14T16:46:38.577Z,4.30
2019-05-14T16:49:09.486Z,4.35
2019-05-14T16:51:41.232Z,4.53
2019-05-14T16:54:12.898Z,4.15
2019-05-14T16:56:50.246Z,4.03
2019-05-14T16:59:40.651Z,4.25
2019-05-14T17:02:12.095Z,5.05
2019-05-14T17:04:43.367Z,4.80
2019-05-14T17:07:14.637Z,5.05
2019-05-14T17:09:45.759Z,4.75
2019-05-14T17:12:20.153Z,4.33
2019-05-14T17:14:49.885Z,5.28
2019-05-14T17:17:20.959Z,4.87
2019-05-14T17:19:52.198Z,5.30
2019-05-14T17:22:29.176Z,5.37
2019-05-14T17:24:58.641Z,5.55
2019-05-14T17:27:29.965Z,5.42
2019-05-14T17:30:01.192Z,4.83
2019-05-14T17:32:32.550Z,5.10
2019-05-14T17:35:04.342Z,5.05
2019-05-14T17:37:36.310Z,5.47
2019-05-14T17:40:09.322Z,6.70
2019-05-14T17:42:40.753Z,5.85
2019-05-14T17:45:12.297Z,6.20
2019-05-14T17:47:43.352Z,6.00
2019-05-14T17:50:14.807Z,5.80
2019-05-14T17:52:46.214Z,5.50
2019-05-14T17:55:18.779Z,5.28
2019-05-14T17:57:57.532Z,4.58
2019-05-14T18:00:22.724Z,5.20
2019-05-14T18:02:54.037Z,5.00
2019-05-14T18:05:25.143Z,5.70
2019-05-14T18:07:59.126Z,5.03
2019-05-14T18:10:28.940Z,5.60
2019-05-14T18:13:00.502Z,5.87
2019-05-14T18:15:31.660Z,5.70
2019-05-14T18:18:04.658Z,5.92
2019-05-14T18:20:36.180Z,5.30
2019-05-14T18:23:11.474Z,5.87
2019-05-14T18:25:39.571Z,6.08
2019-05-14T18:28:10.878Z,6.37
2019-05-14T18:30:42.119Z,5.87
2019-05-14T18:33:13.346Z,6.42
2019-05-14T18:35:47.458Z,6.42
2019-05-14T18:38:19.423Z,6.28
2019-05-14T18:40:50.125Z,6.72
2019-05-14T18:43:21.516Z,7.30
2019-05-14T18:45:52.749Z,7.20
2019-05-14T18:48:25.168Z,6.90
2019-05-14T18:50:59.052Z,6.55
2019-05-14T18:53:29.020Z,7.30
2019-05-14T18:56:16.126Z,7.33
2019-05-14T18:58:32.710Z,8.08
2019-05-14T19:01:04.320Z,7.37
2019-05-14T19:03:39.283Z,7.33
